sensor_id;sensor_type;location;lat;lon;timestamp;P1;durP1;ratioP1;P2;durP2;ratioP2
8596;SDS011;4336;49.310;8.646;2024-01-10T00:02:18;26.33;;;18.60;;
8596;SDS011;4336;49.310;8.646;2024-01-10T00:04:45;19.93;;;16.07;;
8596;SDS011;4336;49.310;8.646;2024-01-10T00:07:11;24.27;;;18.97;;
8596;SDS011;4336;49.310;8.646;2024-01-10T00:09:37;26.63;;;18.73;;
8596;SDS011;4336;49.310;8.646;2024-01-10T00:12:03;26.37;;;18.53;;
8596;SDS011;4336;49.310;8.646;2024-01-10T00:14:29;25.43;;;18.97;;
8596;SDS011;4336;49.310;8.646;2024-01-10T00:16:55;27.73;;;18.90;;
8596;SDS011;4336;49.310;8.646;2024-01-10T00:19:22;24.60;;;18.73;;
8596;SDS011;4336;49.310;8.646;2024-01-10T00:21:48;24.70;;;19.80;;
8596;SDS011;4336;49.310;8.646;2024-01-10T00:24:14;26.50;;;19.07;;
8596;SDS011;4336;49.310;8.646;2024-01-10T00:26:40;22.27;;;17.70;;
8596;SDS011;4336;49.310;8.646;2024-01-10T00:29:06;25.87;;;18.50;;
8596;SDS011;4336;49.310;8.646;2024-01-10T00:31:33;24.30;;;17.33;;
8596;SDS011;4336;49.310;8.646;2024-01-10T00:33:59;24.80;;;18.17;;
8596;SDS011;4336;49.310;8.646;2024-01-10T00:36:25;25.73;;;16.93;;
8596;SDS011;4336;49.310;8.646;2024-01-10T00:38:51;23.97;;;17.13;;
8596;SDS011;4336;49.310;8.646;2024-01-10T00:41:17;27.23;;;17.20;;
8596;SDS011;4336;49.310;8.646;2024-01-10T00:43:44;23.13;;;16.40;;
8596;SDS011;4336;49.310;8.646;2024-01-10T00:46:10;23.20;;;17.07;;
8596;SDS011;4336;49.310;8.646;2024-01-10T00:48:36;23.90;;;18.17;;
8596;SDS011;4336;49.310;8.646;2024-01-10T00:51:02;22.93;;;17.87;;
8596;SDS011;4336;49.310;8.646;2024-01-10T00:53:34;25.33;;;17.93;;
8596;SDS011;4336;49.310;8.646;2024-01-10T00:56:00;25.03;;;18.17;;
8596;SDS011;4336;49.310;8.646;2024-01-10T00:58:26;23.53;;;18.43;;
8596;SDS011;4336;49.310;8.646;2024-01-10T01:00:52;26.30;;;17.70;;
8596;SDS011;4336;49.310;8.646;2024-01-10T01:03:18;25.17;;;19.07;;
8596;SDS011;4336;49.310;8.646;2024-01-10T01:05:44;24.10;;;18.30;;
8596;SDS011;4336;49.310;8.646;2024-01-10T01:08:11;26.50;;;17.73;;
8596;SDS011;4336;49.310;8.646;2024-01-10T01:10:37;23.93;;;16.57;;
8596;SDS011;4336;49.310;8.646;2024-01-10T01:13:03;28.53;;;19.27;;
8596;SDS011;4336;49.310;8.646;2024-01-10T01:15:29;24.40;;;17.90;;
8596;SDS011;4336;49.310;8.646;2024-01-10T01:17:55;24.90;;;18.97;;
8596;SDS011;4336;49.310;8.646;2024-01-10T01:20:21;28.97;;;20.60;;
8596;SDS011;4336;49.310;8.646;2024-01-10T01:22:47;30.43;;;18.83;;
8596;SDS011;4336;49.310;8.646;2024-01-10T01:25:14;27.47;;;17.37;;
8596;SDS011;4336;49.310;8.646;2024-01-10T01:27:40;30.27;;;19.47;;
8596;SDS011;4336;49.310;8.646;2024-01-10T01:30:06;25.43;;;18.70;;
8596;SDS011;4336;49.310;8.646;2024-01-10T01:32:33;29.17;;;18.10;;
8596;SDS011;4336;49.310;8.646;2024-01-10T01:34:59;25.33;;;18.47;;
8596;SDS011;4336;49.310;8.646;2024-01-10T01:37:25;22.63;;;17.97;;
8596;SDS011;4336;49.310;8.646;2024-01-10T01:39:51;28.77;;;19.23;;
8596;SDS011;4336;49.310;8.646;2024-01-10T01:42:17;23.33;;;18.70;;
8596;SDS011;4336;49.310;8.646;2024-01-10T01:44:43;27.63;;;19.50;;
8596;SDS011;4336;49.310;8.646;2024-01-10T01:47:09;27.07;;;20.17;;
8596;SDS011;4336;49.310;8.646;2024-01-10T01:49:36;28.50;;;18.40;;
8596;SDS011;4336;49.310;8.646;2024-01-10T01:52:02;24.40;;;18.57;;
8596;SDS011;4336;49.310;8.646;2024-01-10T01:54:29;27.23;;;19.67;;
8596;SDS011;4336;49.310;8.646;2024-01-10T01:56:57;22.87;;;17.10;;
8596;SDS011;4336;49.310;8.646;2024-01-10T01:59:23;28.40;;;18.83;;
8596;SDS011;4336;49.310;8.646;2024-01-10T02:01:51;26.73;;;18.47;;
8596;SDS011;4336;49.310;8.646;2024-01-10T02:04:18;27.70;;;20.00;;
8596;SDS011;4336;49.310;8.646;2024-01-10T02:06:45;29.57;;;19.30;;
8596;SDS011;4336;49.310;8.646;2024-01-10T02:09:12;21.63;;;16.40;;
8596;SDS011;4336;49.310;8.646;2024-01-10T02:11:38;29.63;;;19.50;;
8596;SDS011;4336;49.310;8.646;2024-01-10T02:14:05;28.13;;;19.10;;
8596;SDS011;4336;49.310;8.646;2024-01-10T02:16:31;28.77;;;19.50;;
8596;SDS011;4336;49.310;8.646;2024-01-10T02:18:57;28.30;;;19.07;;
8596;SDS011;4336;49.310;8.646;2024-01-10T02:21:23;24.57;;;18.97;;
8596;SDS011;4336;49.310;8.646;2024-01-10T02:23:49;26.97;;;19.50;;
8596;SDS011;4336;49.310;8.646;2024-01-10T02:26:16;25.37;;;18.40;;
8596;SDS011;4336;49.310;8.646;2024-01-10T02:28:42;27.43;;;20.10;;
8596;SDS011;4336;49.310;8.646;2024-01-10T02:31:08;26.20;;;19.57;;
8596;SDS011;4336;49.310;8.646;2024-01-10T02:33:34;25.00;;;18.10;;
8596;SDS011;4336;49.310;8.646;2024-01-10T02:36:00;29.17;;;19.20;;
8596;SDS011;4336;49.310;8.646;2024-01-10T02:38:26;28.60;;;20.07;;
8596;SDS011;4336;49.310;8.646;2024-01-10T02:40:53;27.33;;;19.33;;
8596;SDS011;4336;49.310;8.646;2024-01-10T02:43:21;27.90;;;19.83;;
8596;SDS011;4336;49.310;8.646;2024-01-10T02:45:47;28.03;;;19.83;;
8596;SDS011;4336;49.310;8.646;2024-01-10T02:48:13;28.10;;;19.50;;
8596;SDS011;4336;49.310;8.646;2024-01-10T02:50:40;27.10;;;17.87;;
8596;SDS011;4336;49.310;8.646;2024-01-10T02:53:06;28.93;;;19.50;;
8596;SDS011;4336;49.310;8.646;2024-01-10T02:55:32;27.07;;;19.53;;
8596;SDS011;4336;49.310;8.646;2024-01-10T02:57:58;24.63;;;18.63;;
8596;SDS011;4336;49.310;8.646;2024-01-10T03:00:24;30.23;;;20.40;;
8596;SDS011;4336;49.310;8.646;2024-01-10T03:02:51;31.57;;;18.33;;
8596;SDS011;4336;49.310;8.646;2024-01-10T03:05:17;24.53;;;17.57;;
8596;SDS011;4336;49.310;8.646;2024-01-10T03:07:43;28.80;;;19.03;;
8596;SDS011;4336;49.310;8.646;2024-01-10T03:10:09;25.27;;;19.07;;
8596;SDS011;4336;49.310;8.646;2024-01-10T03:12:35;27.87;;;20.53;;
8596;SDS011;4336;49.310;8.646;2024-01-10T03:15:04;27.60;;;19.20;;
8596;SDS011;4336;49.310;8.646;2024-01-10T03:17:30;26.60;;;19.00;;
8596;SDS011;4336;49.310;8.646;2024-01-10T03:19:59;25.77;;;18.73;;
8596;SDS011;4336;49.310;8.646;2024-01-10T03:22:25;27.13;;;19.37;;
8596;SDS011;4336;49.310;8.646;2024-01-10T03:24:51;29.27;;;19.43;;
8596;SDS011;4336;49.310;8.646;2024-01-10T03:27:17;30.07;;;19.67;;
8596;SDS011;4336;49.310;8.646;2024-01-10T03:29:43;27.30;;;19.07;;
8596;SDS011;4336;49.310;8.646;2024-01-10T03:32:09;28.20;;;19.90;;
8596;SDS011;4336;49.310;8.646;2024-01-10T03:34:36;28.00;;;18.17;;
8596;SDS011;4336;49.310;8.646;2024-01-10T03:37:02;28.50;;;18.77;;
8596;SDS011;4336;49.310;8.646;2024-01-10T03:39:32;26.10;;;18.53;;
8596;SDS011;4336;49.310;8.646;2024-01-10T03:41:58;28.30;;;19.30;;
8596;SDS011;4336;49.310;8.646;2024-01-10T03:44:26;30.33;;;21.23;;
8596;SDS011;4336;49.310;8.646;2024-01-10T03:46:54;30.87;;;20.27;;
8596;SDS011;4336;49.310;8.646;2024-01-10T03:49:21;24.50;;;18.00;;
8596;SDS011;4336;49.310;8.646;2024-01-10T03:51:47;29.57;;;20.03;;
8596;SDS011;4336;49.310;8.646;2024-01-10T03:54:13;29.07;;;20.77;;
8596;SDS011;4336;49.310;8.646;2024-01-10T03:56:39;29.77;;;21.03;;
8596;SDS011;4336;49.310;8.646;2024-01-10T03:59:05;27.80;;;19.40;;
8596;SDS011;4336;49.310;8.646;2024-01-10T04:01:31;29.07;;;19.13;;
8596;SDS011;4336;49.310;8.646;2024-01-10T04:03:58;25.70;;;17.20;;
8596;SDS011;4336;49.310;8.646;2024-01-10T04:06:24;32.63;;;21.63;;
8596;SDS011;4336;49.310;8.646;2024-01-10T04:08:53;27.30;;;19.93;;
8596;SDS011;4336;49.310;8.646;2024-01-10T04:11:19;33.40;;;20.27;;
8596;SDS011;4336;49.310;8.646;2024-01-10T04:13:45;30.70;;;20.17;;
8596;SDS011;4336;49.310;8.646;2024-01-10T04:16:11;31.23;;;20.73;;
8596;SDS011;4336;49.310;8.646;2024-01-10T04:18:38;28.43;;;19.40;;
8596;SDS011;4336;49.310;8.646;2024-01-10T04:21:04;29.10;;;19.77;;
8596;SDS011;4336;49.310;8.646;2024-01-10T04:23:30;28.63;;;20.43;;
8596;SDS011;4336;49.310;8.646;2024-01-10T04:25:59;30.63;;;20.90;;
8596;SDS011;4336;49.310;8.646;2024-01-10T04:28:25;29.13;;;19.47;;
8596;SDS011;4336;49.310;8.646;2024-01-10T04:30:51;29.70;;;20.17;;
8596;SDS011;4336;49.310;8.646;2024-01-10T04:33:17;33.60;;;21.40;;
8596;SDS011;4336;49.310;8.646;2024-01-10T04:35:43;30.73;;;22.00;;
8596;SDS011;4336;49.310;8.646;2024-01-10T04:38:09;36.47;;;21.80;;
8596;SDS011;4336;49.310;8.646;2024-01-10T04:40:35;29.37;;;20.93;;
8596;SDS011;4336;49.310;8.646;2024-01-10T04:43:02;27.47;;;19.47;;
8596;SDS011;4336;49.310;8.646;2024-01-10T04:45:28;30.37;;;21.30;;
8596;SDS011;4336;49.310;8.646;2024-01-10T04:47:54;32.97;;;21.43;;
8596;SDS011;4336;49.310;8.646;2024-01-10T04:50:20;29.63;;;20.70;;
8596;SDS011;4336;49.310;8.646;2024-01-10T04:52:46;29.50;;;21.00;;
8596;SDS011;4336;49.310;8.646;2024-01-10T04:55:12;33.07;;;21.77;;
8596;SDS011;4336;49.310;8.646;2024-01-10T04:57:38;35.07;;;21.63;;
8596;SDS011;4336;49.310;8.646;2024-01-10T05:00:05;30.03;;;19.67;;
8596;SDS011;4336;49.310;8.646;2024-01-10T05:02:31;30.60;;;21.17;;
8596;SDS011;4336;49.310;8.646;2024-01-10T05:04:58;30.07;;;21.63;;
8596;SDS011;4336;49.310;8.646;2024-01-10T05:07:24;30.27;;;20.10;;
8596;SDS011;4336;49.310;8.646;2024-01-10T05:09:50;32.17;;;21.90;;
8596;SDS011;4336;49.310;8.646;2024-01-10T05:12:16;32.00;;;21.57;;
8596;SDS011;4336;49.310;8.646;2024-01-10T05:14:43;28.27;;;19.50;;
8596;SDS011;4336;49.310;8.646;2024-01-10T05:17:09;31.33;;;20.77;;
8596;SDS011;4336;49.310;8.646;2024-01-10T05:19:35;31.67;;;21.13;;
8596;SDS011;4336;49.310;8.646;2024-01-10T05:22:01;30.20;;;21.27;;
8596;SDS011;4336;49.310;8.646;2024-01-10T05:24:27;30.13;;;21.33;;
8596;SDS011;4336;49.310;8.646;2024-01-10T05:26:53;41.30;;;21.80;;
8596;SDS011;4336;49.310;8.646;2024-01-10T05:29:20;31.63;;;21.13;;
8596;SDS011;4336;49.310;8.646;2024-01-10T05:31:48;34.40;;;22.20;;
8596;SDS011;4336;49.310;8.646;2024-01-10T05:34:15;30.23;;;22.80;;
8596;SDS011;4336;49.310;8.646;2024-01-10T05:36:42;29.03;;;19.67;;
8596;SDS011;4336;49.310;8.646;2024-01-10T05:39:08;35.37;;;20.27;;
8596;SDS011;4336;49.310;8.646;2024-01-10T05:41:34;30.67;;;20.07;;
8596;SDS011;4336;49.310;8.646;2024-01-10T05:44:00;34.97;;;21.80;;
8596;SDS011;4336;49.310;8.646;2024-01-10T05:46:29;32.07;;;21.67;;
8596;SDS011;4336;49.310;8.646;2024-01-10T05:48:56;32.17;;;21.43;;
8596;SDS011;4336;49.310;8.646;2024-01-10T05:51:22;30.33;;;21.43;;
8596;SDS011;4336;49.310;8.646;2024-01-10T05:53:48;30.37;;;22.47;;
8596;SDS011;4336;49.310;8.646;2024-01-10T05:56:14;30.60;;;20.73;;
8596;SDS011;4336;49.310;8.646;2024-01-10T05:58:40;28.50;;;21.03;;
8596;SDS011;4336;49.310;8.646;2024-01-10T06:01:07;30.77;;;21.00;;
8596;SDS011;4336;49.310;8.646;2024-01-10T06:03:35;31.90;;;21.50;;
8596;SDS011;4336;49.310;8.646;2024-01-10T06:06:02;31.23;;;20.17;;
8596;SDS011;4336;49.310;8.646;2024-01-10T06:08:28;35.00;;;21.63;;
8596;SDS011;4336;49.310;8.646;2024-01-10T06:10:54;32.37;;;21.43;;
8596;SDS011;4336;49.310;8.646;2024-01-10T06:13:21;28.27;;;20.07;;
8596;SDS011;4336;49.310;8.646;2024-01-10T06:15:47;30.60;;;20.23;;
8596;SDS011;4336;49.310;8.646;2024-01-10T06:18:13;34.00;;;22.20;;
8596;SDS011;4336;49.310;8.646;2024-01-10T06:20:39;33.00;;;21.70;;
8596;SDS011;4336;49.310;8.646;2024-01-10T06:23:05;31.20;;;21.13;;
8596;SDS011;4336;49.310;8.646;2024-01-10T06:25:31;30.23;;;20.97;;
8596;SDS011;4336;49.310;8.646;2024-01-10T06:27:57;28.80;;;21.47;;
8596;SDS011;4336;49.310;8.646;2024-01-10T06:30:24;30.33;;;20.43;;
8596;SDS011;4336;49.310;8.646;2024-01-10T06:32:50;32.33;;;21.07;;
8596;SDS011;4336;49.310;8.646;2024-01-10T06:35:16;30.03;;;21.33;;
8596;SDS011;4336;49.310;8.646;2024-01-10T06:37:42;33.43;;;21.77;;
8596;SDS011;4336;49.310;8.646;2024-01-10T06:40:09;32.30;;;21.33;;
8596;SDS011;4336;49.310;8.646;2024-01-10T06:42:36;32.03;;;22.23;;
8596;SDS011;4336;49.310;8.646;2024-01-10T06:45:04;34.07;;;22.17;;
8596;SDS011;4336;49.310;8.646;2024-01-10T06:47:32;33.03;;;21.73;;
8596;SDS011;4336;49.310;8.646;2024-01-10T06:49:59;32.23;;;20.53;;
8596;SDS011;4336;49.310;8.646;2024-01-10T06:52:25;36.37;;;21.20;;
8596;SDS011;4336;49.310;8.646;2024-01-10T06:54:51;34.77;;;21.90;;
8596;SDS011;4336;49.310;8.646;2024-01-10T06:57:17;34.23;;;21.97;;
8596;SDS011;4336;49.310;8.646;2024-01-10T06:59:45;33.33;;;21.80;;
8596;SDS011;4336;49.310;8.646;2024-01-10T07:02:11;32.73;;;21.73;;
8596;SDS011;4336;49.310;8.646;2024-01-10T07:04:37;33.17;;;21.83;;
8596;SDS011;4336;49.310;8.646;2024-01-10T07:07:04;33.97;;;20.17;;
8596;SDS011;4336;49.310;8.646;2024-01-10T07:09:30;31.77;;;21.53;;
8596;SDS011;4336;49.310;8.646;2024-01-10T07:11:57;29.30;;;19.17;;
8596;SDS011;4336;49.310;8.646;2024-01-10T07:14:23;31.63;;;20.53;;
8596;SDS011;4336;49.310;8.646;2024-01-10T07:16:49;32.43;;;21.13;;
8596;SDS011;4336;49.310;8.646;2024-01-10T07:19:15;35.20;;;21.63;;
8596;SDS011;4336;49.310;8.646;2024-01-10T07:21:41;35.90;;;22.80;;
8596;SDS011;4336;49.310;8.646;2024-01-10T07:24:08;32.40;;;21.83;;
8596;SDS011;4336;49.310;8.646;2024-01-10T07:26:37;33.90;;;22.80;;
8596;SDS011;4336;49.310;8.646;2024-01-10T07:29:03;31.80;;;22.87;;
8596;SDS011;4336;49.310;8.646;2024-01-10T07:31:34;32.60;;;21.93;;
8596;SDS011;4336;49.310;8.646;2024-01-10T07:34:00;32.60;;;22.43;;
8596;SDS011;4336;49.310;8.646;2024-01-10T07:36:26;31.73;;;21.80;;
8596;SDS011;4336;49.310;8.646;2024-01-10T07:38:55;31.40;;;20.83;;
8596;SDS011;4336;49.310;8.646;2024-01-10T07:41:25;32.80;;;20.07;;
8596;SDS011;4336;49.310;8.646;2024-01-10T07:43:51;31.50;;;21.53;;
8596;SDS011;4336;49.310;8.646;2024-01-10T07:46:17;37.53;;;22.47;;
8596;SDS011;4336;49.310;8.646;2024-01-10T07:48:43;31.23;;;22.03;;
8596;SDS011;4336;49.310;8.646;2024-01-10T07:51:09;30.90;;;21.37;;
8596;SDS011;4336;49.310;8.646;2024-01-10T07:53:36;35.43;;;23.23;;
8596;SDS011;4336;49.310;8.646;2024-01-10T07:56:02;35.17;;;22.53;;
8596;SDS011;4336;49.310;8.646;2024-01-10T07:58:28;32.97;;;22.30;;
8596;SDS011;4336;49.310;8.646;2024-01-10T08:00:54;31.97;;;21.87;;
8596;SDS011;4336;49.310;8.646;2024-01-10T08:03:20;32.70;;;22.23;;
8596;SDS011;4336;49.310;8.646;2024-01-10T08:05:46;32.03;;;22.80;;
8596;SDS011;4336;49.310;8.646;2024-01-10T08:08:12;37.43;;;22.50;;
8596;SDS011;4336;49.310;8.646;2024-01-10T08:10:39;29.60;;;21.17;;
8596;SDS011;4336;49.310;8.646;2024-01-10T08:13:05;34.33;;;23.13;;
8596;SDS011;4336;49.310;8.646;2024-01-10T08:15:31;34.57;;;23.27;;
8596;SDS011;4336;49.310;8.646;2024-01-10T08:17:59;35.37;;;22.33;;
8596;SDS011;4336;49.310;8.646;2024-01-10T08:20:28;36.27;;;22.60;;
8596;SDS011;4336;49.310;8.646;2024-01-10T08:22:54;35.27;;;22.20;;
8596;SDS011;4336;49.310;8.646;2024-01-10T08:25:21;36.80;;;19.33;;
8596;SDS011;4336;49.310;8.646;2024-01-10T08:27:47;29.87;;;22.23;;
8596;SDS011;4336;49.310;8.646;2024-01-10T08:30:14;33.50;;;22.30;;
8596;SDS011;4336;49.310;8.646;2024-01-10T08:32:40;29.40;;;22.60;;
8596;SDS011;4336;49.310;8.646;2024-01-10T08:35:07;33.17;;;23.40;;
8596;SDS011;4336;49.310;8.646;2024-01-10T08:37:36;31.23;;;21.80;;
8596;SDS011;4336;49.310;8.646;2024-01-10T08:40:03;32.43;;;23.73;;
8596;SDS011;4336;49.310;8.646;2024-01-10T08:42:35;32.77;;;23.03;;
8596;SDS011;4336;49.310;8.646;2024-01-10T08:45:01;35.17;;;22.53;;
8596;SDS011;4336;49.310;8.646;2024-01-10T08:47:27;35.27;;;22.53;;
8596;SDS011;4336;49.310;8.646;2024-01-10T08:49:56;32.70;;;22.80;;
8596;SDS011;4336;49.310;8.646;2024-01-10T08:52:22;30.60;;;21.53;;
8596;SDS011;4336;49.310;8.646;2024-01-10T08:54:48;33.50;;;22.97;;
8596;SDS011;4336;49.310;8.646;2024-01-10T08:57:15;33.30;;;21.90;;
8596;SDS011;4336;49.310;8.646;2024-01-10T08:59:41;35.50;;;22.20;;
8596;SDS011;4336;49.310;8.646;2024-01-10T09:02:07;31.17;;;22.10;;
8596;SDS011;4336;49.310;8.646;2024-01-10T09:04:33;35.97;;;22.83;;
8596;SDS011;4336;49.310;8.646;2024-01-10T09:07:00;34.40;;;22.33;;
8596;SDS011;4336;49.310;8.646;2024-01-10T09:09:26;37.10;;;24.17;;
8596;SDS011;4336;49.310;8.646;2024-01-10T09:11:53;30.50;;;21.10;;
8596;SDS011;4336;49.310;8.646;2024-01-10T09:14:19;31.73;;;22.07;;
8596;SDS011;4336;49.310;8.646;2024-01-10T09:16:45;30.67;;;22.57;;
8596;SDS011;4336;49.310;8.646;2024-01-10T09:19:11;32.90;;;23.43;;
8596;SDS011;4336;49.310;8.646;2024-01-10T09:21:38;33.10;;;21.30;;
8596;SDS011;4336;49.310;8.646;2024-01-10T09:24:04;30.93;;;22.33;;
8596;SDS011;4336;49.310;8.646;2024-01-10T09:26:34;32.07;;;22.17;;
8596;SDS011;4336;49.310;8.646;2024-01-10T09:29:00;34.60;;;23.33;;
8596;SDS011;4336;49.310;8.646;2024-01-10T09:31:26;32.33;;;23.63;;
8596;SDS011;4336;49.310;8.646;2024-01-10T09:33:52;33.40;;;23.27;;
8596;SDS011;4336;49.310;8.646;2024-01-10T09:36:19;33.47;;;20.57;;
8596;SDS011;4336;49.310;8.646;2024-01-10T09:38:45;33.87;;;23.33;;
8596;SDS011;4336;49.310;8.646;2024-01-10T09:41:11;43.80;;;22.77;;
8596;SDS011;4336;49.310;8.646;2024-01-10T09:43:38;33.43;;;22.97;;
8596;SDS011;4336;49.310;8.646;2024-01-10T09:46:04;34.73;;;22.67;;
8596;SDS011;4336;49.310;8.646;2024-01-10T09:48:32;36.77;;;22.73;;
8596;SDS011;4336;49.310;8.646;2024-01-10T09:50:59;30.83;;;22.87;;
8596;SDS011;4336;49.310;8.646;2024-01-10T09:53:26;33.80;;;22.77;;
8596;SDS011;4336;49.310;8.646;2024-01-10T09:55:52;35.17;;;23.23;;
8596;SDS011;4336;49.310;8.646;2024-01-10T09:58:25;31.33;;;23.53;;
8596;SDS011;4336;49.310;8.646;2024-01-10T10:00:51;33.40;;;22.60;;
8596;SDS011;4336;49.310;8.646;2024-01-10T10:03:17;33.27;;;23.10;;
8596;SDS011;4336;49.310;8.646;2024-01-10T10:05:44;34.03;;;24.07;;
8596;SDS011;4336;49.310;8.646;2024-01-10T10:08:14;31.67;;;23.50;;
8596;SDS011;4336;49.310;8.646;2024-01-10T10:10:41;34.10;;;23.50;;
8596;SDS011;4336;49.310;8.646;2024-01-10T10:13:11;40.47;;;23.33;;
8596;SDS011;4336;49.310;8.646;2024-01-10T10:18:27;32.83;;;23.40;;
8596;SDS011;4336;49.310;8.646;2024-01-10T10:23:33;42.07;;;23.53;;
8596;SDS011;4336;49.310;8.646;2024-01-10T10:26:02;33.30;;;22.70;;
8596;SDS011;4336;49.310;8.646;2024-01-10T10:28:35;37.57;;;23.60;;
8596;SDS011;4336;49.310;8.646;2024-01-10T10:31:01;35.47;;;23.33;;
8596;SDS011;4336;49.310;8.646;2024-01-10T10:33:28;31.67;;;23.17;;
8596;SDS011;4336;49.310;8.646;2024-01-10T10:35:55;34.20;;;23.53;;
8596;SDS011;4336;49.310;8.646;2024-01-10T10:38:24;33.37;;;23.33;;
8596;SDS011;4336;49.310;8.646;2024-01-10T10:40:50;35.40;;;23.17;;
8596;SDS011;4336;49.310;8.646;2024-01-10T10:43:18;31.43;;;23.17;;
8596;SDS011;4336;49.310;8.646;2024-01-10T10:45:47;30.40;;;22.20;;
8596;SDS011;4336;49.310;8.646;2024-01-10T10:48:17;34.33;;;24.40;;
8596;SDS011;4336;49.310;8.646;2024-01-10T10:51:46;34.77;;;24.23;;
8596;SDS011;4336;49.310;8.646;2024-01-10T10:53:42;34.63;;;23.63;;
8596;SDS011;4336;49.310;8.646;2024-01-10T10:56:11;35.07;;;24.37;;
8596;SDS011;4336;49.310;8.646;2024-01-10T10:58:38;31.70;;;22.17;;
8596;SDS011;4336;49.310;8.646;2024-01-10T11:01:05;39.23;;;27.40;;
8596;SDS011;4336;49.310;8.646;2024-01-10T11:03:35;32.37;;;23.90;;
8596;SDS011;4336;49.310;8.646;2024-01-10T11:06:02;32.93;;;23.53;;
8596;SDS011;4336;49.310;8.646;2024-01-10T11:08:36;34.43;;;23.67;;
8596;SDS011;4336;49.310;8.646;2024-01-10T11:11:04;33.13;;;23.27;;
8596;SDS011;4336;49.310;8.646;2024-01-10T11:16:26;32.00;;;21.80;;
8596;SDS011;4336;49.310;8.646;2024-01-10T11:24:16;32.87;;;22.50;;
8596;SDS011;4336;49.310;8.646;2024-01-10T11:26:44;36.53;;;23.83;;
8596;SDS011;4336;49.310;8.646;2024-01-10T11:29:11;34.47;;;23.37;;
8596;SDS011;4336;49.310;8.646;2024-01-10T11:31:38;33.00;;;20.90;;
8596;SDS011;4336;49.310;8.646;2024-01-10T11:34:04;31.73;;;22.87;;
8596;SDS011;4336;49.310;8.646;2024-01-10T11:36:30;33.73;;;23.80;;
8596;SDS011;4336;49.310;8.646;2024-01-10T11:39:02;31.43;;;22.33;;
8596;SDS011;4336;49.310;8.646;2024-01-10T11:41:30;34.10;;;23.83;;
8596;SDS011;4336;49.310;8.646;2024-01-10T11:46:42;35.13;;;24.07;;
8596;SDS011;4336;49.310;8.646;2024-01-10T11:49:08;34.93;;;23.93;;
8596;SDS011;4336;49.310;8.646;2024-01-10T11:51:35;33.80;;;22.80;;
8596;SDS011;4336;49.310;8.646;2024-01-10T11:54:01;33.17;;;22.70;;
8596;SDS011;4336;49.310;8.646;2024-01-10T11:56:38;32.47;;;23.43;;
8596;SDS011;4336;49.310;8.646;2024-01-10T11:59:09;33.20;;;24.53;;
8596;SDS011;4336;49.310;8.646;2024-01-10T12:01:40;34.43;;;23.93;;
8596;SDS011;4336;49.310;8.646;2024-01-10T12:04:06;35.63;;;23.60;;
8596;SDS011;4336;49.310;8.646;2024-01-10T12:06:32;33.63;;;23.90;;
8596;SDS011;4336;49.310;8.646;2024-01-10T12:09:01;35.17;;;22.93;;
8596;SDS011;4336;49.310;8.646;2024-01-10T12:11:34;32.80;;;23.50;;
8596;SDS011;4336;49.310;8.646;2024-01-10T12:14:00;32.43;;;22.77;;
8596;SDS011;4336;49.310;8.646;2024-01-10T12:16:26;39.67;;;24.97;;
8596;SDS011;4336;49.310;8.646;2024-01-10T12:18:52;37.47;;;25.27;;
8596;SDS011;4336;49.310;8.646;2024-01-10T12:21:18;33.00;;;24.67;;
8596;SDS011;4336;49.310;8.646;2024-01-10T12:23:45;32.90;;;24.30;;
8596;SDS011;4336;49.310;8.646;2024-01-10T12:26:12;34.87;;;24.37;;
8596;SDS011;4336;49.310;8.646;2024-01-10T12:28:38;38.23;;;25.30;;
8596;SDS011;4336;49.310;8.646;2024-01-10T12:31:05;34.73;;;25.50;;
8596;SDS011;4336;49.310;8.646;2024-01-10T12:33:37;36.63;;;25.07;;
8596;SDS011;4336;49.310;8.646;2024-01-10T12:36:10;32.83;;;23.43;;
8596;SDS011;4336;49.310;8.646;2024-01-10T12:38:40;36.40;;;24.17;;
8596;SDS011;4336;49.310;8.646;2024-01-10T12:41:06;34.10;;;25.13;;
8596;SDS011;4336;49.310;8.646;2024-01-10T12:43:35;33.40;;;25.07;;
8596;SDS011;4336;49.310;8.646;2024-01-10T12:46:05;34.43;;;25.07;;
8596;SDS011;4336;49.310;8.646;2024-01-10T12:48:31;33.90;;;24.53;;
8596;SDS011;4336;49.310;8.646;2024-01-10T12:51:12;37.47;;;25.23;;
8596;SDS011;4336;49.310;8.646;2024-01-10T12:53:40;38.30;;;24.73;;
8596;SDS011;4336;49.310;8.646;2024-01-10T12:56:07;35.60;;;26.07;;
8596;SDS011;4336;49.310;8.646;2024-01-10T12:58:35;38.10;;;27.80;;
8596;SDS011;4336;49.310;8.646;2024-01-10T13:01:05;38.50;;;26.87;;
8596;SDS011;4336;49.310;8.646;2024-01-10T13:03:31;37.70;;;27.53;;
8596;SDS011;4336;49.310;8.646;2024-01-10T13:05:58;44.90;;;27.00;;
8596;SDS011;4336;49.310;8.646;2024-01-10T13:08:24;41.70;;;27.03;;
8596;SDS011;4336;49.310;8.646;2024-01-10T13:10:50;37.13;;;25.83;;
8596;SDS011;4336;49.310;8.646;2024-01-10T13:13:16;38.37;;;27.93;;
8596;SDS011;4336;49.310;8.646;2024-01-10T13:15:43;33.17;;;23.23;;
8596;SDS011;4336;49.310;8.646;2024-01-10T13:18:10;35.97;;;25.77;;
8596;SDS011;4336;49.310;8.646;2024-01-10T13:20:37;37.03;;;26.97;;
8596;SDS011;4336;49.310;8.646;2024-01-10T13:23:04;36.63;;;25.57;;
8596;SDS011;4336;49.310;8.646;2024-01-10T13:25:30;37.60;;;23.27;;
8596;SDS011;4336;49.310;8.646;2024-01-10T13:27:56;32.57;;;25.47;;
8596;SDS011;4336;49.310;8.646;2024-01-10T13:30:22;41.17;;;24.77;;
8596;SDS011;4336;49.310;8.646;2024-01-10T13:32:48;41.20;;;26.60;;
8596;SDS011;4336;49.310;8.646;2024-01-10T13:35:15;37.33;;;25.73;;
8596;SDS011;4336;49.310;8.646;2024-01-10T13:37:42;38.23;;;25.10;;
8596;SDS011;4336;49.310;8.646;2024-01-10T13:40:11;36.50;;;26.00;;
8596;SDS011;4336;49.310;8.646;2024-01-10T13:42:41;40.23;;;25.50;;
8596;SDS011;4336;49.310;8.646;2024-01-10T13:45:07;40.80;;;25.70;;
8596;SDS011;4336;49.310;8.646;2024-01-10T13:47:36;36.10;;;23.10;;
8596;SDS011;4336;49.310;8.646;2024-01-10T13:50:03;37.87;;;25.47;;
8596;SDS011;4336;49.310;8.646;2024-01-10T13:52:31;33.00;;;23.97;;
8596;SDS011;4336;49.310;8.646;2024-01-10T13:54:57;40.93;;;25.53;;
8596;SDS011;4336;49.310;8.646;2024-01-10T13:57:23;38.67;;;24.33;;
8596;SDS011;4336;49.310;8.646;2024-01-10T13:59:49;35.47;;;24.20;;
8596;SDS011;4336;49.310;8.646;2024-01-10T14:02:15;36.57;;;25.30;;
8596;SDS011;4336;49.310;8.646;2024-01-10T14:04:44;35.77;;;24.97;;
8596;SDS011;4336;49.310;8.646;2024-01-10T14:07:10;35.90;;;25.07;;
8596;SDS011;4336;49.310;8.646;2024-01-10T14:09:37;34.80;;;24.23;;
8596;SDS011;4336;49.310;8.646;2024-01-10T14:12:03;33.77;;;23.60;;
8596;SDS011;4336;49.310;8.646;2024-01-10T14:14:29;33.67;;;24.27;;
8596;SDS011;4336;49.310;8.646;2024-01-10T14:16:57;37.70;;;25.50;;
8596;SDS011;4336;49.310;8.646;2024-01-10T14:19:23;36.63;;;24.73;;
8596;SDS011;4336;49.310;8.646;2024-01-10T14:21:49;38.00;;;25.13;;
8596;SDS011;4336;49.310;8.646;2024-01-10T14:24:16;36.10;;;23.80;;
8596;SDS011;4336;49.310;8.646;2024-01-10T14:26:42;39.23;;;25.93;;
8596;SDS011;4336;49.310;8.646;2024-01-10T14:29:09;39.43;;;23.37;;
8596;SDS011;4336;49.310;8.646;2024-01-10T14:31:36;36.43;;;24.77;;
8596;SDS011;4336;49.310;8.646;2024-01-10T14:34:02;38.83;;;25.57;;
8596;SDS011;4336;49.310;8.646;2024-01-10T14:36:29;38.53;;;25.30;;
8596;SDS011;4336;49.310;8.646;2024-01-10T14:38:55;35.63;;;24.60;;
8596;SDS011;4336;49.310;8.646;2024-01-10T14:41:21;36.80;;;24.63;;
8596;SDS011;4336;49.310;8.646;2024-01-10T14:43:48;37.73;;;25.73;;
8596;SDS011;4336;49.310;8.646;2024-01-10T14:46:14;38.90;;;25.83;;
8596;SDS011;4336;49.310;8.646;2024-01-10T14:48:41;34.53;;;23.07;;
8596;SDS011;4336;49.310;8.646;2024-01-10T14:51:07;37.47;;;26.00;;
8596;SDS011;4336;49.310;8.646;2024-01-10T14:53:33;37.03;;;25.00;;
8596;SDS011;4336;49.310;8.646;2024-01-10T14:56:02;35.40;;;25.03;;
8596;SDS011;4336;49.310;8.646;2024-01-10T14:58:29;37.73;;;25.47;;
8596;SDS011;4336;49.310;8.646;2024-01-10T15:00:55;35.97;;;24.73;;
8596;SDS011;4336;49.310;8.646;2024-01-10T15:03:21;36.00;;;24.17;;